sensor_id;sensor_type;location;lat;lon;timestamp;pressure;altitude;pressure_sealevel;temperature;humidity
9839;BME280;4958;48.150;11.506;2024-02-04T00:00:00;96360.66;;;9.53;73.20
9839;BME280;4958;48.150;11.506;2024-02-04T00:02:32;96362.78;;;9.58;73.17
9839;BME280;4958;48.150;11.506;2024-02-04T00:04:58;96364.69;;;9.56;73.11
9839;BME280;4958;48.150;11.506;2024-02-04T00:07:25;96363.22;;;9.53;73.06
9839;BME280;4958;48.150;11.506;2024-02-04T00:09:52;96367.28;;;9.56;73.07
9839;BME280;4958;48.150;11.506;2024-02-04T00:12:20;96377.88;;;9.35;73.95
9839;BME280;4958;48.150;11.506;2024-02-04T00:14:47;96380.31;;;9.37;74.24
9839;BME280;4958;48.150;11.506;2024-02-04T00:17:19;96382.91;;;9.45;73.59
9839;BME280;4958;48.150;11.506;2024-02-04T00:19:47;96393.66;;;9.40;74.15
9839;BME280;4958;48.150;11.506;2024-02-04T00:22:15;96400.19;;;9.34;74.24
9839;BME280;4958;48.150;11.506;2024-02-04T00:24:43;96394.25;;;9.34;74.30
9839;BME280;4958;48.150;11.506;2024-02-04T00:27:10;96383.25;;;9.42;74.19
9839;BME280;4958;48.150;11.506;2024-02-04T00:29:35;96385.19;;;9.48;74.02
9839;BME280;4958;48.150;11.506;2024-02-04T00:32:04;96382.28;;;9.43;74.07
9839;BME280;4958;48.150;11.506;2024-02-04T00:34:31;96392.28;;;9.28;74.59
9839;BME280;4958;48.150;11.506;2024-02-04T00:37:01;96385.38;;;9.28;74.85
9839;BME280;4958;48.150;11.506;2024-02-04T00:39:30;96378.28;;;9.22;74.89
9839;BME280;4958;48.150;11.506;2024-02-04T00:41:57;96389.34;;;9.23;75.01
9839;BME280;4958;48.150;11.506;2024-02-04T00:44:23;96390.91;;;9.16;75.75
9839;BME280;4958;48.150;11.506;2024-02-04T00:46:49;96405.41;;;9.07;76.29
9839;BME280;4958;48.150;11.506;2024-02-04T00:49:16;96401.22;;;9.06;76.27
9839;BME280;4958;48.150;11.506;2024-02-04T00:51:42;96406.50;;;9.05;76.98
9839;BME280;4958;48.150;11.506;2024-02-04T00:54:10;96414.06;;;9.06;76.82
9839;BME280;4958;48.150;11.506;2024-02-04T00:56:36;96412.03;;;9.10;76.52
9839;BME280;4958;48.150;11.506;2024-02-04T00:59:03;96407.41;;;9.13;76.18
9839;BME280;4958;48.150;11.506;2024-02-04T01:01:29;96398.75;;;9.14;76.55
9839;BME280;4958;48.150;11.506;2024-02-04T01:03:56;96384.13;;;9.15;76.20
9839;BME280;4958;48.150;11.506;2024-02-04T01:06:22;96389.41;;;9.13;76.36
9839;BME280;4958;48.150;11.506;2024-02-04T01:08:48;96401.47;;;8.95;77.15
9839;BME280;4958;48.150;11.506;2024-02-04T01:11:16;96412.03;;;8.92;77.50
9839;BME280;4958;48.150;11.506;2024-02-04T01:13:43;96398.59;;;8.80;78.20
9839;BME280;4958;48.150;11.506;2024-02-04T01:16:09;96403.31;;;8.85;78.14
9839;BME280;4958;48.150;11.506;2024-02-04T01:18:36;96407.53;;;8.76;78.71
9839;BME280;4958;48.150;11.506;2024-02-04T01:21:02;96400.63;;;8.77;78.41
9839;BME280;4958;48.150;11.506;2024-02-04T01:23:29;96399.31;;;8.73;78.61
9839;BME280;4958;48.150;11.506;2024-02-04T01:25:55;96416.03;;;8.77;78.88
9839;BME280;4958;48.150;11.506;2024-02-04T01:28:23;96396.75;;;8.73;78.51
9839;BME280;4958;48.150;11.506;2024-02-04T01:30:49;96397.56;;;8.73;78.33
9839;BME280;4958;48.150;11.506;2024-02-04T01:33:16;96395.19;;;8.62;78.87
9839;BME280;4958;48.150;11.506;2024-02-04T01:35:42;96409.16;;;8.50;79.33
9839;BME280;4958;48.150;11.506;2024-02-04T01:38:08;96422.66;;;8.52;79.58
9839;BME280;4958;48.150;11.506;2024-02-04T01:40:35;96416.56;;;8.53;79.60
9839;BME280;4958;48.150;11.506;2024-02-04T01:43:01;96402.22;;;8.60;79.07
9839;BME280;4958;48.150;11.506;2024-02-04T01:45:29;96394.75;;;8.66;78.62
9839;BME280;4958;48.150;11.506;2024-02-04T01:47:56;96394.16;;;8.73;78.11
9839;BME280;4958;48.150;11.506;2024-02-04T01:50:23;96390.50;;;8.75;78.08
9839;BME280;4958;48.150;11.506;2024-02-04T01:52:51;96402.53;;;8.75;77.73
9839;BME280;4958;48.150;11.506;2024-02-04T01:55:18;96411.47;;;8.71;77.81
9839;BME280;4958;48.150;11.506;2024-02-04T01:57:44;96412.06;;;8.64;78.07
9839;BME280;4958;48.150;11.506;2024-02-04T02:00:13;96395.50;;;8.77;77.28
9839;BME280;4958;48.150;11.506;2024-02-04T02:02:41;96373.72;;;8.81;77.04
9839;BME280;4958;48.150;11.506;2024-02-04T02:05:08;96369.97;;;8.75;76.83
9839;BME280;4958;48.150;11.506;2024-02-04T02:07:34;96379.00;;;8.61;77.58
9839;BME280;4958;48.150;11.506;2024-02-04T02:10:01;96374.66;;;8.62;77.29
9839;BME280;4958;48.150;11.506;2024-02-04T02:12:34;96377.66;;;8.57;77.38
9839;BME280;4958;48.150;11.506;2024-02-04T02:15:10;96360.41;;;8.68;77.11
9839;BME280;4958;48.150;11.506;2024-02-04T02:17:44;96359.13;;;8.63;77.07
9839;BME280;4958;48.150;11.506;2024-02-04T02:20:19;96357.50;;;8.62;77.07
9839;BME280;4958;48.150;11.506;2024-02-04T02:22:49;96367.47;;;8.65;77.16
9839;BME280;4958;48.150;11.506;2024-02-04T02:25:19;96368.78;;;8.70;76.93
9839;BME280;4958;48.150;11.506;2024-02-04T02:27:47;96370.53;;;8.69;76.84
9839;BME280;4958;48.150;11.506;2024-02-04T02:30:14;96354.13;;;8.80;76.43
9839;BME280;4958;48.150;11.506;2024-02-04T02:32:40;96332.69;;;8.89;76.31
9839;BME280;4958;48.150;11.506;2024-02-04T02:35:07;96319.28;;;8.95;75.59
9839;BME280;4958;48.150;11.506;2024-02-04T02:37:39;96301.16;;;8.96;74.84
9839;BME280;4958;48.150;11.506;2024-02-04T02:40:09;96285.22;;;8.93;74.72
9839;BME280;4958;48.150;11.506;2024-02-04T02:42:41;96281.78;;;9.02;74.82
9839;BME280;4958;48.150;11.506;2024-02-04T02:45:09;96271.00;;;8.98;74.33
9839;BME280;4958;48.150;11.506;2024-02-04T02:47:38;96278.63;;;8.90;74.58
9839;BME280;4958;48.150;11.506;2024-02-04T02:50:05;96269.00;;;8.92;74.77
9839;BME280;4958;48.150;11.506;2024-02-04T02:52:32;96276.34;;;8.87;74.80
9839;BME280;4958;48.150;11.506;2024-02-04T02:54:58;96285.81;;;8.87;74.90
9839;BME280;4958;48.150;11.506;2024-02-04T02:57:25;96290.00;;;8.88;74.99
9839;BME280;4958;48.150;11.506;2024-02-04T02:59:53;96275.47;;;8.96;74.66
9839;BME280;4958;48.150;11.506;2024-02-04T03:02:19;96283.22;;;9.05;74.10
9839;BME280;4958;48.150;11.506;2024-02-04T03:04:45;96271.53;;;9.10;73.64
9839;BME280;4958;48.150;11.506;2024-02-04T03:07:12;96269.34;;;9.15;73.70
9839;BME280;4958;48.150;11.506;2024-02-04T03:09:38;96283.56;;;9.10;73.96
9839;BME280;4958;48.150;11.506;2024-02-04T03:12:05;96284.25;;;9.12;74.03
9839;BME280;4958;48.150;11.506;2024-02-04T03:14:32;96293.34;;;9.06;74.07
9839;BME280;4958;48.150;11.506;2024-02-04T03:17:00;96290.63;;;9.08;74.20
9839;BME280;4958;48.150;11.506;2024-02-04T03:19:26;96301.19;;;9.05;74.15
9839;BME280;4958;48.150;11.506;2024-02-04T03:21:52;96300.25;;;9.06;74.21
9839;BME280;4958;48.150;11.506;2024-02-04T03:24:19;96289.09;;;9.15;73.52
9839;BME280;4958;48.150;11.506;2024-02-04T03:26:45;96281.22;;;9.16;73.41
9839;BME280;4958;48.150;11.506;2024-02-04T03:29:11;96283.00;;;9.16;73.30
9839;BME280;4958;48.150;11.506;2024-02-04T03:31:38;96281.09;;;9.18;73.26
9839;BME280;4958;48.150;11.506;2024-02-04T03:34:06;96272.94;;;9.05;73.44
9839;BME280;4958;48.150;11.506;2024-02-04T03:36:32;96303.31;;;9.09;73.40
9839;BME280;4958;48.150;11.506;2024-02-04T03:38:58;96305.19;;;8.99;74.10
9839;BME280;4958;48.150;11.506;2024-02-04T03:41:25;96303.56;;;8.98;74.03
9839;BME280;4958;48.150;11.506;2024-02-04T03:43:51;96298.34;;;8.90;74.40
9839;BME280;4958;48.150;11.506;2024-02-04T03:46:18;96289.91;;;8.97;74.23
9839;BME280;4958;48.150;11.506;2024-02-04T03:48:44;96297.84;;;8.86;74.93
9839;BME280;4958;48.150;11.506;2024-02-04T03:51:16;96300.13;;;8.89;74.71
9839;BME280;4958;48.150;11.506;2024-02-04T03:53:43;96303.06;;;8.94;74.71
9839;BME280;4958;48.150;11.506;2024-02-04T03:56:09;96313.31;;;8.94;74.98
9839;BME280;4958;48.150;11.506;2024-02-04T03:58:35;96317.94;;;8.91;74.96
9839;BME280;4958;48.150;11.506;2024-02-04T04:01:02;96303.06;;;8.94;75.13
9839;BME280;4958;48.150;11.506;2024-02-04T04:03:29;96309.81;;;8.95;75.19
9839;BME280;4958;48.150;11.506;2024-02-04T04:05:55;96310.38;;;9.07;74.58
9839;BME280;4958;48.150;11.506;2024-02-04T04:08:23;96307.47;;;9.02;74.94
9839;BME280;4958;48.150;11.506;2024-02-04T04:10:49;96311.66;;;9.03;74.92
9839;BME280;4958;48.150;11.506;2024-02-04T04:13:16;96305.34;;;8.97;75.00
9839;BME280;4958;48.150;11.506;2024-02-04T04:15:42;96298.28;;;8.99;74.94
9839;BME280;4958;48.150;11.506;2024-02-04T04:18:08;96337.16;;;9.05;75.50
9839;BME280;4958;48.150;11.506;2024-02-04T04:20:36;96369.03;;;8.94;76.97
9839;BME280;4958;48.150;11.506;2024-02-04T04:23:03;96385.75;;;8.98;77.23
9839;BME280;4958;48.150;11.506;2024-02-04T04:25:31;96391.75;;;8.89;78.14
9839;BME280;4958;48.150;11.506;2024-02-04T04:27:58;96411.06;;;8.93;78.81
9839;BME280;4958;48.150;11.506;2024-02-04T04:30:24;96411.22;;;8.91;79.32
9839;BME280;4958;48.150;11.506;2024-02-04T04:32:51;96441.22;;;8.91;80.44
9839;BME280;4958;48.150;11.506;2024-02-04T04:35:17;96443.63;;;8.75;80.96
9839;BME280;4958;48.150;11.506;2024-02-04T04:37:44;96469.63;;;8.62;82.51
9839;BME280;4958;48.150;11.506;2024-02-04T04:40:11;96464.66;;;8.60;82.17
9839;BME280;4958;48.150;11.506;2024-02-04T04:42:39;96478.16;;;8.62;82.45
9839;BME280;4958;48.150;11.506;2024-02-04T04:45:06;96467.00;;;8.72;81.64
9839;BME280;4958;48.150;11.506;2024-02-04T04:47:34;96448.09;;;8.73;80.76
9839;BME280;4958;48.150;11.506;2024-02-04T04:50:00;96456.19;;;8.78;80.67
9839;BME280;4958;48.150;11.506;2024-02-04T04:52:27;96415.38;;;8.75;79.81
9839;BME280;4958;48.150;11.506;2024-02-04T04:54:54;96427.78;;;8.79;80.19
9839;BME280;4958;48.150;11.506;2024-02-04T04:57:20;96408.25;;;8.86;79.16
9839;BME280;4958;48.150;11.506;2024-02-04T04:59:48;96422.22;;;8.84;79.56
9839;BME280;4958;48.150;11.506;2024-02-04T05:02:15;96389.34;;;8.87;78.52
9839;BME280;4958;48.150;11.506;2024-02-04T05:04:42;96393.38;;;8.90;78.09
9839;BME280;4958;48.150;11.506;2024-02-04T05:07:09;96370.13;;;8.91;77.29
9839;BME280;4958;48.150;11.506;2024-02-04T05:09:35;96371.88;;;8.91;77.58
9839;BME280;4958;48.150;11.506;2024-02-04T05:12:02;96366.31;;;8.95;77.65
9839;BME280;4958;48.150;11.506;2024-02-04T05:14:28;96359.41;;;8.96;77.15
9839;BME280;4958;48.150;11.506;2024-02-04T05:16:56;96321.19;;;8.93;76.37
9839;BME280;4958;48.150;11.506;2024-02-04T05:19:23;96322.13;;;8.92;76.73
9839;BME280;4958;48.150;11.506;2024-02-04T05:21:49;96333.06;;;8.94;77.09
9839;BME280;4958;48.150;11.506;2024-02-04T05:24:15;96316.19;;;8.91;76.63
9839;BME280;4958;48.150;11.506;2024-02-04T05:26:42;96333.34;;;8.91;77.38
9839;BME280;4958;48.150;11.506;2024-02-04T05:29:08;96339.69;;;8.96;77.44
9839;BME280;4958;48.150;11.506;2024-02-04T05:31:40;96358.84;;;9.02;78.09
9839;BME280;4958;48.150;11.506;2024-02-04T05:34:08;96390.47;;;9.03;78.44
9839;BME280;4958;48.150;11.506;2024-02-04T05:36:34;96412.09;;;9.00;79.07
9839;BME280;4958;48.150;11.506;2024-02-04T05:39:08;96424.28;;;8.98;79.76
9839;BME280;4958;48.150;11.506;2024-02-04T05:41:35;96436.38;;;9.06;80.32
9839;BME280;4958;48.150;11.506;2024-02-04T05:44:01;96455.31;;;9.05;81.89
9839;BME280;4958;48.150;11.506;2024-02-04T05:46:28;96468.34;;;9.03;82.46
9839;BME280;4958;48.150;11.506;2024-02-04T05:48:54;96455.97;;;9.07;82.62
9839;BME280;4958;48.150;11.506;2024-02-04T05:51:22;96493.50;;;8.99;84.79
9839;BME280;4958;48.150;11.506;2024-02-04T05:53:49;96499.19;;;8.93;84.98
9839;BME280;4958;48.150;11.506;2024-02-04T05:56:15;96526.22;;;8.97;85.52
9839;BME280;4958;48.150;11.506;2024-02-04T05:58:42;96566.50;;;8.97;87.42
9839;BME280;4958;48.150;11.506;2024-02-04T06:01:08;96551.25;;;8.95;87.28
9839;BME280;4958;48.150;11.506;2024-02-04T06:03:34;96553.53;;;8.98;87.16
9839;BME280;4958;48.150;11.506;2024-02-04T06:06:01;96560.41;;;8.98;87.62
9839;BME280;4958;48.150;11.506;2024-02-04T06:08:29;96570.84;;;8.96;87.92
9839;BME280;4958;48.150;11.506;2024-02-04T06:10:56;96569.59;;;9.00;87.49
9839;BME280;4958;48.150;11.506;2024-02-04T06:13:22;96563.81;;;8.98;87.33
9839;BME280;4958;48.150;11.506;2024-02-04T06:15:49;96553.53;;;8.98;87.04
9839;BME280;4958;48.150;11.506;2024-02-04T06:18:15;96549.22;;;8.89;87.10
9839;BME280;4958;48.150;11.506;2024-02-04T06:20:42;96562.22;;;8.88;87.40
9839;BME280;4958;48.150;11.506;2024-02-04T06:23:09;96552.59;;;8.90;87.05
9839;BME280;4958;48.150;11.506;2024-02-04T06:25:37;96547.56;;;8.98;86.80
9839;BME280;4958;48.150;11.506;2024-02-04T06:28:03;96576.63;;;8.98;88.31
9839;BME280;4958;48.150;11.506;2024-02-04T06:30:33;96567.59;;;8.94;88.07
9839;BME280;4958;48.150;11.506;2024-02-04T06:33:00;96548.91;;;9.02;86.88
9839;BME280;4958;48.150;11.506;2024-02-04T06:35:26;96532.09;;;9.08;85.77
9839;BME280;4958;48.150;11.506;2024-02-04T06:37:52;96505.03;;;9.13;84.85
9839;BME280;4958;48.150;11.506;2024-02-04T06:40:19;96508.31;;;9.06;84.96
9839;BME280;4958;48.150;11.506;2024-02-04T06:42:47;96537.75;;;9.11;85.77
9839;BME280;4958;48.150;11.506;2024-02-04T06:45:13;96545.19;;;9.14;85.69
9839;BME280;4958;48.150;11.506;2024-02-04T06:47:43;96520.16;;;9.16;83.94
9839;BME280;4958;48.150;11.506;2024-02-04T06:50:09;96543.16;;;9.18;84.59
9839;BME280;4958;48.150;11.506;2024-02-04T06:52:39;96527.31;;;9.22;84.27
9839;BME280;4958;48.150;11.506;2024-02-04T06:55:06;96533.16;;;9.15;84.14
9839;BME280;4958;48.150;11.506;2024-02-04T06:57:32;96527.88;;;9.16;83.45
9839;BME280;4958;48.150;11.506;2024-02-04T07:00:00;96526.13;;;9.17;83.28
9839;BME280;4958;48.150;11.506;2024-02-04T07:02:26;96530.31;;;9.18;83.20
9839;BME280;4958;48.150;11.506;2024-02-04T07:04:53;96509.47;;;9.21;83.01
9839;BME280;4958;48.150;11.506;2024-02-04T07:07:19;96495.47;;;9.06;83.03
9839;BME280;4958;48.150;11.506;2024-02-04T07:09:46;96504.28;;;9.03;82.72
9839;BME280;4958;48.150;11.506;2024-02-04T07:12:12;96486.31;;;9.03;82.76
9839;BME280;4958;48.150;11.506;2024-02-04T07:14:39;96480.06;;;9.06;82.39
9839;BME280;4958;48.150;11.506;2024-02-04T07:17:06;96470.09;;;9.03;82.20
9839;BME280;4958;48.150;11.506;2024-02-04T07:19:33;96450.34;;;9.03;81.62
9839;BME280;4958;48.150;11.506;2024-02-04T07:22:00;96455.84;;;9.08;81.34
9839;BME280;4958;48.150;11.506;2024-02-04T07:24:27;96433.63;;;9.17;80.51
9839;BME280;4958;48.150;11.506;2024-02-04T07:26:56;96431.56;;;9.20;80.30
9839;BME280;4958;48.150;11.506;2024-02-04T07:29:23;96426.88;;;9.16;79.55
9839;BME280;4958;48.150;11.506;2024-02-04T07:31:49;96440.50;;;9.16;80.19
9839;BME280;4958;48.150;11.506;2024-02-04T07:34:17;96420.09;;;9.15;79.41
9839;BME280;4958;48.150;11.506;2024-02-04T07:36:45;96400.38;;;9.15;79.04
9839;BME280;4958;48.150;11.506;2024-02-04T07:39:14;96378.25;;;9.05;78.08
9839;BME280;4958;48.150;11.506;2024-02-04T07:41:41;96388.19;;;8.99;78.45
9839;BME280;4958;48.150;11.506;2024-02-04T07:44:07;96393.97;;;9.02;78.63
9839;BME280;4958;48.150;11.506;2024-02-04T07:46:34;96400.94;;;9.09;78.49
9839;BME280;4958;48.150;11.506;2024-02-04T07:49:00;96399.69;;;9.13;78.32
9839;BME280;4958;48.150;11.506;2024-02-04T07:51:28;96380.03;;;9.22;78.13
9839;BME280;4958;48.150;11.506;2024-02-04T07:53:55;96352.91;;;9.27;77.18
9839;BME280;4958;48.150;11.506;2024-02-04T07:56:21;96334.78;;;9.29;76.61
9839;BME280;4958;48.150;11.506;2024-02-04T07:58:48;96331.03;;;9.41;76.15
9839;BME280;4958;48.150;11.506;2024-02-04T08:01:14;96324.81;;;9.52;75.91
9839;BME280;4958;48.150;11.506;2024-02-04T08:03:40;96311.88;;;9.61;75.54
9839;BME280;4958;48.150;11.506;2024-02-04T08:06:07;96269.94;;;9.69;74.67
9839;BME280;4958;48.150;11.506;2024-02-04T08:08:34;96256.28;;;9.68;74.18
9839;BME280;4958;48.150;11.506;2024-02-04T08:11:01;96267.09;;;9.46;74.34
9839;BME280;4958;48.150;11.506;2024-02-04T08:13:27;96275.97;;;9.52;74.46
9839;BME280;4958;48.150;11.506;2024-02-04T08:15:54;96294.28;;;9.49;74.76
9839;BME280;4958;48.150;11.506;2024-02-04T08:18:20;96308.13;;;9.56;74.91
9839;BME280;4958;48.150;11.506;2024-02-04T08:20:46;96314.16;;;9.73;74.75
9839;BME280;4958;48.150;11.506;2024-02-04T08:23:15;96283.50;;;9.79;73.65
9839;BME280;4958;48.150;11.506;2024-02-04T08:25:43;96276.44;;;9.81;73.64
9839;BME280;4958;48.150;11.506;2024-02-04T08:28:09;96250.88;;;9.80;73.40
9839;BME280;4958;48.150;11.506;2024-02-04T08:30:38;96242.22;;;9.81;73.14
9839;BME280;4958;48.150;11.506;2024-02-04T08:33:04;96237.44;;;9.94;72.95
9839;BME280;4958;48.150;11.506;2024-02-04T08:35:32;96230.50;;;9.94;72.51
9839;BME280;4958;48.150;11.506;2024-02-04T08:38:01;96222.53;;;10.14;72.07
9839;BME280;4958;48.150;11.506;2024-02-04T08:40:30;96183.78;;;10.23;71.22
9839;BME280;4958;48.150;11.506;2024-02-04T08:42:57;96167.53;;;10.23;70.86
9839;BME280;4958;48.150;11.506;2024-02-04T08:45:24;96166.91;;;10.21;71.09
9839;BME280;4958;48.150;11.506;2024-02-04T08:47:51;96153.72;;;10.24;70.52
9839;BME280;4958;48.150;11.506;2024-02-04T08:50:17;96162.25;;;10.24;70.84
9839;BME280;4958;48.150;11.506;2024-02-04T08:52:44;96162.91;;;10.51;70.32
9839;BME280;4958;48.150;11.506;2024-02-04T08:55:11;96115.59;;;10.44;69.56
9839;BME280;4958;48.150;11.506;2024-02-04T08:57:37;96111.72;;;10.48;69.52
9839;BME280;4958;48.150;11.506;2024-02-04T09:00:07;96105.44;;;10.66;69.12
9839;BME280;4958;48.150;11.506;2024-02-04T09:02:36;96079.31;;;10.86;68.54
9839;BME280;4958;48.150;11.506;2024-02-04T09:05:06;96017.84;;;10.75;67.63
9839;BME280;4958;48.150;11.506;2024-02-04T09:07:32;96026.16;;;10.85;67.93
9839;BME280;4958;48.150;11.506;2024-02-04T09:09:59;96007.34;;;10.84;67.10
9839;BME280;4958;48.150;11.506;2024-02-04T09:12:25;95990.66;;;11.03;66.80
9839;BME280;4958;48.150;11.506;2024-02-04T09:14:58;95984.53;;;11.04;66.36
9839;BME280;4958;48.150;11.506;2024-02-04T09:17:25;95979.22;;;11.05;66.43
9839;BME280;4958;48.150;11.506;2024-02-04T09:19:52;95976.78;;;11.12;66.21
9839;BME280;4958;48.150;11.506;2024-02-04T09:22:19;95951.09;;;11.19;65.84
9839;BME280;4958;48.150;11.506;2024-02-04T09:24:45;95956.56;;;11.24;65.93
9839;BME280;4958;48.150;11.506;2024-02-04T09:27:11;95956.63;;;11.16;65.65
9839;BME280;4958;48.150;11.506;2024-02-04T09:29:38;95968.41;;;11.10;66.65
9839;BME280;4958;48.150;11.506;2024-02-04T09:32:05;95986.78;;;11.07;66.44
9839;BME280;4958;48.150;11.506;2024-02-04T09:34:33;95981.22;;;10.95;66.72
9839;BME280;4958;48.150;11.506;2024-02-04T09:36:59;95985.59;;;10.87;66.72
9839;BME280;4958;48.150;11.506;2024-02-04T09:39:26;95996.44;;;10.74;67.09
9839;BME280;4958;48.150;11.506;2024-02-04T09:41:55;96023.03;;;10.66;67.46
9839;BME280;4958;48.150;11.506;2024-02-04T09:44:34;96038.47;;;10.58;67.60
9839;BME280;4958;48.150;11.506;2024-02-04T09:50:39;96071.66;;;10.45;68.30
9839;BME280;4958;48.150;11.506;2024-02-04T09:53:10;96069.91;;;10.54;68.12
9839;BME280;4958;48.150;11.506;2024-02-04T09:55:43;96070.38;;;10.57;68.46
9839;BME280;4958;48.150;11.506;2024-02-04T09:58:10;96083.72;;;10.53;68.36
9839;BME280;4958;48.150;11.506;2024-02-04T10:00:38;96083.41;;;10.39;68.26
9839;BME280;4958;48.150;11.506;2024-02-04T10:10:12;96114.75;;;10.59;68.60
9839;BME280;4958;48.150;11.506;2024-02-04T10:12:53;96103.81;;;10.65;68.41
9839;BME280;4958;48.150;11.506;2024-02-04T10:15:50;96144.22;;;10.65;69.17
9839;BME280;4958;48.150;11.506;2024-02-04T10:22:29;96083.22;;;10.73;67.51
9839;BME280;4958;48.150;11.506;2024-02-04T10:25:30;96091.41;;;10.77;68.19
9839;BME280;4958;48.150;11.506;2024-02-04T10:29:12;96085.63;;;10.67;68.10
9839;BME280;4958;48.150;11.506;2024-02-04T10:31:26;96098.03;;;10.63;68.15
9839;BME280;4958;48.150;11.506;2024-02-04T10:33:54;96092.66;;;10.81;68.31
9839;BME280;4958;48.150;11.506;2024-02-04T10:36:21;96047.81;;;11.06;67.31
9839;BME280;4958;48.150;11.506;2024-02-04T10:38:47;96021.81;;;11.16;66.56
9839;BME280;4958;48.150;11.506;2024-02-04T10:41:16;95989.50;;;11.14;66.23
9839;BME280;4958;48.150;11.506;2024-02-04T10:43:44;96000.63;;;11.06;66.51
9839;BME280;4958;48.150;11.506;2024-02-04T10:46:13;96013.72;;;11.27;66.43
9839;BME280;4958;48.150;11.506;2024-02-04T10:48:43;96015.19;;;11.53;66.23
9839;BME280;4958;48.150;11.506;2024-02-04T10:51:12;95974.91;;;11.52;65.47
9839;BME280;4958;48.150;11.506;2024-02-04T10:53:44;95995.88;;;11.49;65.75
9839;BME280;4958;48.150;11.506;2024-02-04T10:56:17;95985.69;;;11.32;66.21
9839;BME280;4958;48.150;11.506;2024-02-04T10:58:47;96013.59;;;11.21;66.69
9839;BME280;4958;48.150;11.506;2024-02-04T11:01:14;96020.97;;;11.32;66.71
9839;BME280;4958;48.150;11.506;2024-02-04T11:03:41;96007.63;;;11.51;66.35
9839;BME280;4958;48.150;11.506;2024-02-04T11:06:08;96015.75;;;11.63;66.69
9839;BME280;4958;48.150;11.506;2024-02-04T11:08:37;95983.50;;;11.67;66.20
9839;BME280;4958;48.150;11.506;2024-02-04T11:11:04;95982.13;;;11.79;65.94
9839;BME280;4958;48.150;11.506;2024-02-04T11:13:32;95979.78;;;11.92;66.27
9839;BME280;4958;48.150;11.506;2024-02-04T11:16:03;95946.78;;;12.17;65.46
9839;BME280;4958;48.150;11.506;2024-02-04T11:21:55;95803.97;;;12.89;62.60
9839;BME280;4958;48.150;11.506;2024-02-04T11:24:39;95755.59;;;13.25;61.41
9839;BME280;4958;48.150;11.506;2024-02-04T11:27:11;95690.06;;;13.46;60.69
9839;BME280;4958;48.150;11.506;2024-02-04T11:36:24;95599.59;;;13.66;59.23
9839;BME280;4958;48.150;11.506;2024-02-04T11:38:58;95590.75;;;13.40;59.27
9839;BME280;4958;48.150;11.506;2024-02-04T11:41:25;95611.81;;;13.03;59.81
9839;BME280;4958;48.150;11.506;2024-02-04T11:43:53;95653.06;;;12.90;60.71
9839;BME280;4958;48.150;11.506;2024-02-04T11:46:20;95674.41;;;12.70;61.32
9839;BME280;4958;48.150;11.506;2024-02-04T11:48:52;95778.25;;;12.59;63.01
9839;BME280;4958;48.150;11.506;2024-02-04T11:51:23;95809.69;;;12.63;63.49
9839;BME280;4958;48.150;11.506;2024-02-04T11:53:50;95865.97;;;12.67;64.88
9839;BME280;4958;48.150;11.506;2024-02-04T11:56:18;95759.28;;;12.73;62.74
9839;BME280;4958;48.150;11.506;2024-02-04T11:58:45;95735.03;;;12.68;62.03
9839;BME280;4958;48.150;11.506;2024-02-04T12:01:12;95710.34;;;12.65;61.80
9839;BME280;4958;48.150;11.506;2024-02-04T12:03:39;95703.31;;;12.31;62.07
9839;BME280;4958;48.150;11.506;2024-02-04T12:06:05;95739.06;;;12.34;62.52
9839;BME280;4958;48.150;11.506;2024-02-04T12:08:35;95749.88;;;12.23;63.04
9839;BME280;4958;48.150;11.506;2024-02-04T12:11:01;95740.56;;;12.07;62.95
9839;BME280;4958;48.150;11.506;2024-02-04T12:13:28;95743.34;;;12.06;62.83
9839;BME280;4958;48.150;11.506;2024-02-04T12:15:55;95751.34;;;12.11;62.90
9839;BME280;4958;48.150;11.506;2024-02-04T12:18:21;95751.13;;;12.27;63.15
9839;BME280;4958;48.150;11.506;2024-02-04T12:20:48;95746.44;;;12.37;62.93
9839;BME280;4958;48.150;11.506;2024-02-04T12:23:16;95717.19;;;12.30;62.78
9839;BME280;4958;48.150;11.506;2024-02-04T12:25:49;95725.31;;;12.13;62.92
9839;BME280;4958;48.150;11.506;2024-02-04T12:28:20;95758.28;;;12.10;63.49
9839;BME280;4958;48.150;11.506;2024-02-04T12:30:53;95741.56;;;12.06;62.98
9839;BME280;4958;48.150;11.506;2024-02-04T12:33:20;95740.75;;;12.06;63.64
9839;BME280;4958;48.150;11.506;2024-02-04T12:35:51;95749.22;;;12.00;63.78
9839;BME280;4958;48.150;11.506;2024-02-04T12:38:21;95767.00;;;11.95;63.89
9839;BME280;4958;48.150;11.506;2024-02-04T12:40:49;95761.16;;;11.86;63.87
9839;BME280;4958;48.150;11.506;2024-02-04T12:43:40;95775.44;;;11.74;64.33
9839;BME280;4958;48.150;11.506;2024-02-04T12:46:06;95787.38;;;11.75;64.53
9839;BME280;4958;48.150;11.506;2024-02-04T12:48:34;95790.50;;;11.85;64.64
9839;BME280;4958;48.150;11.506;2024-02-04T12:51:00;95794.34;;;11.89;64.54
9839;BME280;4958;48.150;11.506;2024-02-04T12:53:28;95787.75;;;11.87;64.63
9839;BME280;4958;48.150;11.506;2024-02-04T12:55:59;95773.09;;;11.87;64.68
9839;BME280;4958;48.150;11.506;2024-02-04T12:58:25;95746.00;;;11.98;64.50
9839;BME280;4958;48.150;11.506;2024-02-04T13:00:59;95737.00;;;12.08;64.25
9839;BME280;4958;48.150;11.506;2024-02-04T13:03:26;95722.09;;;12.25;64.03
9839;BME280;4958;48.150;11.506;2024-02-04T13:05:57;95709.38;;;12.24;63.68
9839;BME280;4958;48.150;11.506;2024-02-04T13:08:24;95693.56;;;12.33;63.57
9839;BME280;4958;48.150;11.506;2024-02-04T13:10:53;95688.53;;;12.47;63.38
9839;BME280;4958;48.150;11.506;2024-02-04T13:13:21;95694.72;;;12.52;63.40
9839;BME280;4958;48.150;11.506;2024-02-04T13:15:51;95686.75;;;12.47;63.01
9839;BME280;4958;48.150;11.506;2024-02-04T13:18:18;95699.78;;;12.39;62.94
9839;BME280;4958;48.150;11.506;2024-02-04T13:20:44;95706.88;;;12.30;63.08
9839;BME280;4958;48.150;11.506;2024-02-04T13:23:11;95720.63;;;12.37;63.38
9839;BME280;4958;48.150;11.506;2024-02-04T13:25:37;95720.19;;;12.34;63.41
9839;BME280;4958;48.150;11.506;2024-02-04T13:28:04;95714.47;;;12.38;63.33
9839;BME280;4958;48.150;11.506;2024-02-04T13:30:32;95710.72;;;12.41;63.27
9839;BME280;4958;48.150;11.506;2024-02-04T13:32:58;95737.53;;;12.40;63.97
9839;BME280;4958;48.150;11.506;2024-02-04T13:35:27;95742.16;;;12.44;63.64
9839;BME280;4958;48.150;11.506;2024-02-04T13:37:53;95732.44;;;12.47;63.46
9839;BME280;4958;48.150;11.506;2024-02-04T13:40:21;95729.78;;;12.40;63.44
9839;BME280;4958;48.150;11.506;2024-02-04T13:42:51;95713.06;;;12.36;63.46
9839;BME280;4958;48.150;11.506;2024-02-04T13:45:17;95722.94;;;12.32;63.64